Погода Куанибна неделю

Республика Дагестан, Россия

16 - 22 июля
  • 16июля
    Сегодня
    +12°
    +24°
    Практически безоблачно
    ВремяПогодаТемператураВлажностьДавлениеВетер, м/сВероятность осадков
    00:00Ясно и безоблачно+13°C89 %628 мм1.1 м/с2 %
    03:00Ясно и безоблачно+13°C91 %628 мм1.4 м/с2 %
    06:00Ясно и безоблачно+14°C82 %628 мм1.3 м/с2 %
    09:00Ясно и безоблачно+20°C56 %631 мм1.0 м/с2 %
    12:00Ясно и безоблачно+23°C43 %631 мм1.8 м/с6 %
    15:00Практически безоблачно+23°C45 %631 мм2.2 м/с18 %
    18:00Облачно с прояснениями+21°C61 %631 мм1.2 м/с12 %
    21:00Небольшая облачность+16°C76 %630 мм0.8 м/с3 %
  • 17июля
    Среда
    +13°
    +24°
    Облачно с прояснениями
    ВремяПогодаТемператураВлажностьДавлениеВетер, м/сВероятность осадков
    00:00Практически безоблачно+13°C87 %629 мм1.0 м/с4 %
    03:00Ясно и безоблачно+13°C92 %629 мм1.2 м/с3 %
    06:00Ясно и безоблачно+14°C83 %630 мм1.2 м/с2 %
    09:00Небольшая облачность+21°C55 %632 мм0.6 м/с5 %
    12:00Облачно с прояснениями+23°C44 %632 мм1.8 м/с15 %
    15:00Облачно с прояснениями+24°C42 %632 мм2.1 м/с22 %
    18:00Облачно с прояснениями+21°C59 %632 мм1.0 м/с17 %
    21:00Практически безоблачно+17°C71 %631 мм1.0 м/с9 %
  • 18июля
    Четверг
    +12°
    +24°
    Облачно с прояснениями
    ВремяПогодаТемператураВлажностьДавлениеВетер, м/сВероятность осадков
    00:00Облачно с прояснениями+15°C84 %630 мм0.8 м/с5 %
    03:00Облачно с прояснениями+14°C86 %629 мм1.1 м/с8 %
    06:00Ясно и безоблачно+15°C82 %630 мм1.3 м/с5 %
    09:00Практически безоблачно+20°C54 %631 мм1.0 м/с26 %
    12:00Практически безоблачно+22°C44 %632 мм2.2 м/с42 %
    15:00Облачно с прояснениями+23°C47 %631 мм2.4 м/с40 %
    18:00Облачно с прояснениями+20°C61 %631 мм1.6 м/с35 %
    21:00Облачно с прояснениями+15°C83 %630 мм0.5 м/с8 %
  • 19июля
    Пятница
    +13°
    +25°
    Ясно и безоблачно
    ВремяПогодаТемператураВлажностьДавлениеВетер, м/сВероятность осадков
    00:00Ясно и безоблачно+13°C94 %628 мм1.0 м/с4 %
    03:00Ясно и безоблачно+14°C93 %628 мм1.8 м/с5 %
    06:00Ясно и безоблачно+14°C83 %629 мм1.6 м/с4 %
    09:00Ясно и безоблачно+20°C51 %630 мм0.5 м/с4 %
    12:00Практически безоблачно+22°C40 %630 мм2.1 м/с10 %
    15:00Ясно и безоблачно+24°C35 %630 мм2.5 м/с18 %
    18:00Ясно и безоблачно+22°C55 %629 мм1.0 м/с16 %
    21:00Облачно с прояснениями+19°C55 %629 мм0.4 м/с5 %
  • 20июля
    Суббота
    +14°
    +26°
    Облачно с прояснениями
    ВремяПогодаТемператураВлажностьДавлениеВетер, м/сВероятность осадков
    00:00Облачно с прояснениями+14°C76 %627 мм0.8 м/с6 %
    03:00Облачно с прояснениями+13°C80 %626 мм1.4 м/с7 %
    06:00Облачно с прояснениями+15°C75 %627 мм1.7 м/с13 %
    09:00Облачно с прояснениями+21°C56 %628 мм0.1 м/с21 %
    12:00Небольшая облачность+22°C43 %628 мм1.7 м/с26 %
    15:00Облачно с прояснениями+24°C36 %628 мм1.9 м/с27 %
    18:00Облачно с прояснениями+20°C54 %627 мм0.9 м/с24 %
    21:00Облачно с прояснениями+17°C65 %627 мм0.5 м/с5 %
Мы используем cookies
Соглашаюсь